createdAt,value
2022-10-16T00:01:53.900Z,5.30
2022-10-16T00:04:22.191Z,5.93
2022-10-16T00:06:50.210Z,5.80
2022-10-16T00:09:18.540Z,6.17
2022-10-16T00:11:46.759Z,5.57
2022-10-16T00:14:16.947Z,6.20
2022-10-16T00:16:46.505Z,6.30
2022-10-16T00:19:14.723Z,5.93
2022-10-16T00:21:43.314Z,5.77
2022-10-16T00:24:12.509Z,4.80
2022-10-16T00:26:41.559Z,3.97
2022-10-16T00:29:09.885Z,4.13
2022-10-16T00:31:38.136Z,4.13
2022-10-16T00:34:07.797Z,4.63
2022-10-16T00:36:35.952Z,3.97
2022-10-16T00:39:04.021Z,4.23
2022-10-16T00:41:32.614Z,4.10
2022-10-16T00:44:01.955Z,3.70
2022-10-16T00:46:33.934Z,4.17
2022-10-16T00:49:11.054Z,4.17
2022-10-16T00:51:41.764Z,3.57
2022-10-16T00:54:13.404Z,3.90
2022-10-16T00:56:41.982Z,4.07
2022-10-16T00:59:16.357Z,3.27
2022-10-16T01:01:44.487Z,4.27
2022-10-16T01:04:14.399Z,4.27
2022-10-16T01:06:48.562Z,4.00
2022-10-16T01:09:24.045Z,4.40
2022-10-16T01:12:02.192Z,4.10
2022-10-16T01:14:37.633Z,4.57
2022-10-16T01:17:13.613Z,4.27
2022-10-16T01:20:07.799Z,5.00
2022-10-16T01:22:44.464Z,4.50
2022-10-16T01:25:18.792Z,3.80
2022-10-16T01:27:50.655Z,3.90
2022-10-16T01:30:24.207Z,4.00
2022-10-16T01:32:57.638Z,3.50
2022-10-16T01:35:31.112Z,4.43
2022-10-16T01:38:05.611Z,3.87
2022-10-16T01:40:36.722Z,3.60
2022-10-16T01:43:11.307Z,4.03
2022-10-16T01:45:40.356Z,4.70
2022-10-16T01:48:10.776Z,3.67
2022-10-16T01:50:43.873Z,4.07
2022-10-16T01:53:16.145Z,4.10
2022-10-16T01:55:49.490Z,4.23
2022-10-16T01:58:19.676Z,4.53
2022-10-16T02:00:49.983Z,4.90
2022-10-16T02:03:20.963Z,4.50
2022-10-16T02:05:54.107Z,4.63
2022-10-16T02:08:25.057Z,4.97
2022-10-16T02:10:53.225Z,4.73
2022-10-16T02:13:29.228Z,5.20
2022-10-16T02:15:57.310Z,5.20
2022-10-16T02:18:30.133Z,5.43
2022-10-16T02:21:08.099Z,5.70
2022-10-16T02:23:45.399Z,5.53
2022-10-16T02:26:18.019Z,5.80
2022-10-16T02:28:53.353Z,5.80
2022-10-16T02:31:28.507Z,6.37
2022-10-16T02:33:58.941Z,5.40
2022-10-16T02:36:27.825Z,5.27
2022-10-16T02:38:57.032Z,4.93
2022-10-16T02:41:26.024Z,5.20
2022-10-16T02:43:56.149Z,5.13
2022-10-16T02:46:24.886Z,4.73
2022-10-16T02:48:53.050Z,5.10
2022-10-16T02:51:21.473Z,6.00
2022-10-16T02:53:49.660Z,4.80
2022-10-16T02:58:47.805Z,4.83
2022-10-16T03:01:26.143Z,5.63
2022-10-16T03:03:54.277Z,4.90
2022-10-16T03:06:22.681Z,5.07
2022-10-16T03:08:50.777Z,4.97
2022-10-16T03:11:22.539Z,5.67
2022-10-16T03:13:50.717Z,5.50
2022-10-16T03:16:22.425Z,5.70
2022-10-16T03:18:52.161Z,5.27
2022-10-16T03:21:20.570Z,5.57
2022-10-16T03:23:49.147Z,5.77
2022-10-16T03:26:17.321Z,4.77
2022-10-16T03:28:45.427Z,5.50
2022-10-16T03:31:21.930Z,5.73
2022-10-16T03:33:51.681Z,5.13
2022-10-16T03:36:20.265Z,5.77
2022-10-16T03:38:48.396Z,6.07
2022-10-16T03:41:16.533Z,5.47
2022-10-16T03:43:44.562Z,6.03
2022-10-16T03:46:12.763Z,6.43
2022-10-16T03:48:41.827Z,5.73
2022-10-16T03:51:11.532Z,5.63
2022-10-16T03:53:39.596Z,5.87
2022-10-16T03:56:09.365Z,6.13
2022-10-16T03:58:37.902Z,5.60
2022-10-16T04:01:06.083Z,5.50
2022-10-16T04:03:34.287Z,6.13
2022-10-16T04:06:02.557Z,5.90
2022-10-16T04:08:32.143Z,6.97
2022-10-16T04:11:00.271Z,5.90
2022-10-16T04:13:28.274Z,6.53
2022-10-16T04:15:56.382Z,5.60
2022-10-16T04:18:24.669Z,6.10
2022-10-16T04:20:52.768Z,5.97
2022-10-16T04:23:20.871Z,5.60
2022-10-16T04:25:50.413Z,6.17
2022-10-16T04:28:18.651Z,5.80
2022-10-16T04:30:46.778Z,5.97
2022-10-16T04:33:15.053Z,6.67
2022-10-16T04:35:44.144Z,6.10
2022-10-16T04:38:12.379Z,6.23
2022-10-16T04:40:40.494Z,6.27
2022-10-16T04:43:11.856Z,6.03
2022-10-16T04:45:39.959Z,5.77
2022-10-16T04:48:08.037Z,6.10
2022-10-16T04:50:36.171Z,6.10
2022-10-16T04:53:04.450Z,6.80
2022-10-16T04:55:32.515Z,6.07
2022-10-16T04:58:00.644Z,5.80
2022-10-16T05:00:30.203Z,6.37
2022-10-16T05:03:08.576Z,7.10
2022-10-16T05:05:37.407Z,6.70
2022-10-16T05:08:05.966Z,5.47
2022-10-16T05:10:34.044Z,5.90
2022-10-16T05:13:02.700Z,6.23
2022-10-16T05:15:32.199Z,6.47
2022-10-16T05:18:02.802Z,6.30
2022-10-16T05:20:31.340Z,6.63
2022-10-16T05:22:59.365Z,6.17
2022-10-16T05:25:27.665Z,6.60
2022-10-16T05:27:55.732Z,6.90
2022-10-16T05:30:23.822Z,6.87
2022-10-16T05:32:53.898Z,5.87
2022-10-16T05:35:23.732Z,5.73
2022-10-16T05:37:51.827Z,6.10
2022-10-16T05:40:20.131Z,5.80
2022-10-16T05:42:48.245Z,5.83
2022-10-16T05:45:16.391Z,5.80
2022-10-16T05:47:44.567Z,5.80
2022-10-16T05:50:14.293Z,6.10
2022-10-16T05:52:42.473Z,5.77
2022-10-16T05:55:11.154Z,6.00
2022-10-16T05:57:39.709Z,6.57
2022-10-16T06:00:09.221Z,5.90
2022-10-16T06:02:37.486Z,6.63
2022-10-16T06:05:06.472Z,5.70
2022-10-16T06:07:38.673Z,5.13
2022-10-16T06:10:08.823Z,6.10
2022-10-16T06:12:36.966Z,6.03
2022-10-16T06:15:07.610Z,5.53
2022-10-16T06:17:35.794Z,5.77
2022-10-16T06:20:04.161Z,5.50
2022-10-16T06:22:32.256Z,5.80
2022-10-16T06:25:01.866Z,5.10
2022-10-16T06:27:30.418Z,5.60
2022-10-16T06:29:58.698Z,5.23
2022-10-16T06:32:27.562Z,6.00
2022-10-16T06:34:55.665Z,5.30
2022-10-16T06:37:24.459Z,5.10
2022-10-16T06:39:54.277Z,5.63
2022-10-16T06:42:24.204Z,5.43
2022-10-16T06:44:52.423Z,5.33
2022-10-16T06:47:21.064Z,5.20
2022-10-16T06:49:51.905Z,5.20
2022-10-16T06:52:22.523Z,5.60
2022-10-16T06:54:51.532Z,5.57
2022-10-16T06:57:19.677Z,5.23
2022-10-16T06:59:53.250Z,4.67
2022-10-16T07:02:23.560Z,4.87
2022-10-16T07:04:51.985Z,4.93
2022-10-16T07:07:20.325Z,4.47
2022-10-16T07:09:48.377Z,4.60
2022-10-16T07:12:16.517Z,4.30
2022-10-16T07:14:44.597Z,3.90
2022-10-16T07:17:14.255Z,3.27
2022-10-16T07:19:42.320Z,3.73
2022-10-16T07:22:10.454Z,3.87
2022-10-16T07:24:38.627Z,3.90
2022-10-16T07:27:06.748Z,4.13
2022-10-16T07:29:35.157Z,4.30
2022-10-16T07:32:04.302Z,4.60
2022-10-16T07:34:33.939Z,3.97
2022-10-16T07:37:02.390Z,4.13
2022-10-16T07:39:30.950Z,4.47
2022-10-16T07:41:59.562Z,3.60
2022-10-16T07:44:27.767Z,3.63
2022-10-16T07:46:55.828Z,3.60
2022-10-16T07:49:24.158Z,3.50
2022-10-16T07:51:53.692Z,3.87
2022-10-16T07:54:21.833Z,3.60
2022-10-16T07:56:50.081Z,3.83
2022-10-16T07:59:18.439Z,3.93
2022-10-16T08:01:46.830Z,3.77
2022-10-16T08:04:15.481Z,4.73
2022-10-16T08:06:44.149Z,4.17
2022-10-16T08:09:15.779Z,4.20
2022-10-16T08:11:44.047Z,4.10
2022-10-16T08:14:12.575Z,3.87
2022-10-16T08:16:40.840Z,3.83
2022-10-16T08:19:09.077Z,4.07
2022-10-16T08:21:37.697Z,3.50
2022-10-16T08:24:06.040Z,3.47
2022-10-16T08:26:35.984Z,3.50
2022-10-16T08:29:04.281Z,4.00
2022-10-16T08:31:32.662Z,3.53
2022-10-16T08:34:00.984Z,3.77
2022-10-16T08:36:29.737Z,3.90
2022-10-16T08:38:57.909Z,3.47
2022-10-16T08:41:47.372Z,3.67
2022-10-16T08:44:33.140Z,3.47
2022-10-16T08:47:14.458Z,3.27
2022-10-16T08:49:45.273Z,3.30
2022-10-16T08:52:16.063Z,3.17
2022-10-16T08:54:48.866Z,3.53
2022-10-16T08:57:23.267Z,4.10
2022-10-16T08:59:55.832Z,3.03
2022-10-16T09:02:33.872Z,3.30
2022-10-16T09:05:28.328Z,3.30
2022-10-16T09:08:09.127Z,3.03
2022-10-16T09:10:49.678Z,3.17
2022-10-16T09:13:25.855Z,2.73
2022-10-16T09:16:04.228Z,3.97
2022-10-16T09:18:40.078Z,3.10
2022-10-16T09:21:17.925Z,3.43
2022-10-16T09:23:46.308Z,3.13
2022-10-16T09:26:16.592Z,3.07
2022-10-16T09:28:44.908Z,2.90
2022-10-16T09:31:22.795Z,3.23
2022-10-16T09:33:55.473Z,3.00
2022-10-16T09:36:29.719Z,2.90
2022-10-16T09:39:06.533Z,2.90
2022-10-16T09:41:38.556Z,2.90
2022-10-16T09:44:19.017Z,3.00
2022-10-16T09:46:48.533Z,3.03
2022-10-16T09:49:25.449Z,2.80
2022-10-16T09:52:05.048Z,2.43
2022-10-16T09:54:33.624Z,2.60
2022-10-16T09:57:09.388Z,2.70
2022-10-16T09:59:48.619Z,2.13
2022-10-16T10:02:21.107Z,2.53
2022-10-16T10:04:55.069Z,2.47
2022-10-16T10:07:29.172Z,2.50
2022-10-16T10:09:59.084Z,2.70
2022-10-16T10:12:30.708Z,3.27
2022-10-16T10:15:01.024Z,3.00
2022-10-16T10:17:31.179Z,2.73
2022-10-16T10:20:01.877Z,2.90
2022-10-16T10:22:33.592Z,2.30
2022-10-16T10:25:28.994Z,2.50
2022-10-16T10:28:19.847Z,2.40
2022-10-16T10:30:58.357Z,2.10
2022-10-16T10:33:40.210Z,2.13
2022-10-16T10:36:19.531Z,2.50
2022-10-16T10:38:53.861Z,2.53
2022-10-16T10:42:00.895Z,2.30
2022-10-16T10:44:53.226Z,2.17
2022-10-16T10:47:33.353Z,2.20
2022-10-16T10:50:14.917Z,2.47
2022-10-16T10:53:00.331Z,2.23
2022-10-16T10:55:39.258Z,2.23
2022-10-16T10:58:35.075Z,2.40
2022-10-16T11:01:19.068Z,1.90
2022-10-16T11:04:10.722Z,2.20
2022-10-16T11:06:46.017Z,1.97
2022-10-16T11:09:19.912Z,2.50
2022-10-16T11:11:52.829Z,2.20
2022-10-16T11:14:24.404Z,2.50
2022-10-16T11:16:59.067Z,2.03
2022-10-16T11:19:37.591Z,1.83
2022-10-16T11:22:14.204Z,2.47
2022-10-16T11:24:50.689Z,2.40
2022-10-16T11:27:22.370Z,2.30
2022-10-16T11:29:57.922Z,2.10
2022-10-16T11:32:32.296Z,1.77
2022-10-16T11:35:06.578Z,2.00
2022-10-16T11:37:42.370Z,2.07
2022-10-16T11:40:21.881Z,2.17
2022-10-16T11:42:56.739Z,2.10
2022-10-16T11:45:33.271Z,2.77
2022-10-16T11:48:24.896Z,2.87
2022-10-16T11:50:56.215Z,2.20
2022-10-16T11:53:44.962Z,2.20
2022-10-16T11:56:16.715Z,2.30
2022-10-16T11:58:55.739Z,2.10
2022-10-16T12:01:33.751Z,2.10
2022-10-16T12:04:21.488Z,1.93
2022-10-16T12:06:54.719Z,2.10
2022-10-16T12:09:27.756Z,2.03
2022-10-16T12:11:56.808Z,2.13
2022-10-16T12:15:16.007Z,2.17
2022-10-16T12:17:36.431Z,1.90
2022-10-16T12:20:22.977Z,2.10
2022-10-16T12:22:55.603Z,2.07
2022-10-16T12:25:29.250Z,2.03
2022-10-16T12:28:03.527Z,1.93
2022-10-16T12:30:35.967Z,2.30
2022-10-16T12:33:07.048Z,2.13
2022-10-16T12:35:45.077Z,2.53
2022-10-16T12:38:20.171Z,2.07
2022-10-16T12:40:58.914Z,1.70
2022-10-16T12:43:39.445Z,1.70
2022-10-16T12:46:26.448Z,2.23
2022-10-16T12:49:08.749Z,2.20
2022-10-16T12:51:39.705Z,2.00
2022-10-16T12:54:15.880Z,1.63
2022-10-16T12:56:53.986Z,2.33
2022-10-16T12:59:38.208Z,1.90
2022-10-16T13:02:30.968Z,1.70
2022-10-16T13:05:17.303Z,1.87
2022-10-16T13:08:01.976Z,1.97
2022-10-16T13:10:38.428Z,2.97
2022-10-16T13:13:26.646Z,1.80
2022-10-16T13:16:06.983Z,1.90
2022-10-16T13:18:44.974Z,2.20
2022-10-16T13:21:35.159Z,2.17
2022-10-16T13:24:12.296Z,1.90
2022-10-16T13:26:48.350Z,2.77
2022-10-16T13:29:18.467Z,1.80
2022-10-16T13:31:47.010Z,2.23
2022-10-16T13:34:19.016Z,1.77
2022-10-16T13:36:56.111Z,2.40
2022-10-16T13:39:26.782Z,1.77
2022-10-16T13:42:08.069Z,1.83
2022-10-16T13:44:45.629Z,1.50
2022-10-16T13:47:19.220Z,1.90
2022-10-16T13:49:48.466Z,2.07
2022-10-16T13:52:21.738Z,2.20
2022-10-16T13:54:51.162Z,1.60
2022-10-16T13:57:27.138Z,1.80
2022-10-16T14:03:06.428Z,2.13
2022-10-16T14:05:40.538Z,1.30
2022-10-16T14:08:44.478Z,1.10
2022-10-16T14:11:48.688Z,1.10
2022-10-16T14:14:31.108Z,1.90
2022-10-16T14:17:00.794Z,1.73
2022-10-16T14:19:44.224Z,1.10
2022-10-16T14:22:29.613Z,1.00
2022-10-16T14:25:00.504Z,1.00
2022-10-16T14:27:35.380Z,1.00
2022-10-16T14:30:23.002Z,1.27
2022-10-16T14:33:05.833Z,1.00
2022-10-16T14:35:45.904Z,0.77
2022-10-16T14:38:26.255Z,1.17
2022-10-16T14:41:06.442Z,1.43
2022-10-16T14:43:54.759Z,0.77
2022-10-16T14:46:32.527Z,0.73
2022-10-16T14:49:09.253Z,1.57
2022-10-16T14:51:52.470Z,0.90
2022-10-16T14:54:23.583Z,0.70
2022-10-16T14:57:15.715Z,1.13
2022-10-16T15:00:00.798Z,0.93
2022-10-16T15:02:42.307Z,0.50
2022-10-16T15:05:23.256Z,0.80
2022-10-16T15:07:56.290Z,0.60
2022-10-16T15:10:40.150Z,0.93
2022-10-16T15:13:11.397Z,2.03
2022-10-16T15:15:52.340Z,0.93
2022-10-16T15:18:24.338Z,1.13
2022-10-16T15:20:56.412Z,1.30
2022-10-16T15:23:34.625Z,0.80
2022-10-16T15:26:20.873Z,0.90
2022-10-16T15:29:02.896Z,1.00
2022-10-16T15:31:34.825Z,0.60
2022-10-16T15:34:11.890Z,1.40
2022-10-16T15:37:29.296Z,0.90
2022-10-16T15:39:41.553Z,0.60
2022-10-16T15:42:21.077Z,1.87
2022-10-16T15:44:57.043Z,0.90
2022-10-16T15:47:27.337Z,0.73
2022-10-16T15:49:56.119Z,1.23
2022-10-16T15:53:11.596Z,0.87
2022-10-16T15:55:43.365Z,2.87
2022-10-16T15:58:15.282Z,1.00
2022-10-16T16:00:47.147Z,1.60
2022-10-16T16:03:21.756Z,0.90
2022-10-16T16:05:50.538Z,0.80
2022-10-16T16:08:27.838Z,1.23
2022-10-16T16:11:09.447Z,1.60
2022-10-16T16:14:07.564Z,0.90
2022-10-16T16:16:42.851Z,0.90
2022-10-16T16:19:37.649Z,1.03
2022-10-16T16:22:09.470Z,2.97
2022-10-16T16:25:04.413Z,1.30
2022-10-16T16:27:42.445Z,1.07
2022-10-16T16:30:28.345Z,2.07
2022-10-16T16:33:06.414Z,1.20
2022-10-16T16:35:54.883Z,1.60
2022-10-16T16:38:59.363Z,1.10
2022-10-16T16:41:40.031Z,1.30
2022-10-16T16:44:23.973Z,1.00
2022-10-16T16:47:04.582Z,1.00
2022-10-16T16:51:22.845Z,1.40
2022-10-16T16:52:40.775Z,1.07
2022-10-16T16:58:27.908Z,1.27
2022-10-16T17:01:18.920Z,1.13
2022-10-16T17:03:51.468Z,1.43
2022-10-16T17:06:21.387Z,2.00
2022-10-16T17:09:00.547Z,1.53
2022-10-16T17:11:29.879Z,1.53
2022-10-16T17:14:09.424Z,2.07
2022-10-16T17:16:48.943Z,1.50
2022-10-16T17:19:26.451Z,1.70
2022-10-16T17:21:57.720Z,2.03
2022-10-16T17:24:26.222Z,1.40
2022-10-16T17:27:10.178Z,2.30
2022-10-16T17:29:38.570Z,1.70
2022-10-16T17:32:28.649Z,4.07
2022-10-16T17:35:08.009Z,1.33
2022-10-16T17:38:00.024Z,1.70
2022-10-16T17:40:46.934Z,1.83
2022-10-16T17:44:30.892Z,3.10
2022-10-16T17:46:28.036Z,1.60
2022-10-16T17:48:59.322Z,1.63
2022-10-16T17:51:32.224Z,2.37
2022-10-16T17:54:04.850Z,3.73
2022-10-16T17:56:39.478Z,2.17
2022-10-16T17:59:20.443Z,3.93
2022-10-16T18:01:49.044Z,2.07
2022-10-16T18:04:24.306Z,1.77
2022-10-16T18:06:57.440Z,2.23
2022-10-16T18:09:27.015Z,2.17
2022-10-16T18:12:17.700Z,2.50
2022-10-16T18:14:54.139Z,2.07
2022-10-16T18:17:27.626Z,2.00
2022-10-16T18:19:57.798Z,2.20
2022-10-16T18:22:27.609Z,1.67
2022-10-16T18:24:59.430Z,1.30
2022-10-16T18:27:30.148Z,1.80
2022-10-16T18:30:08.885Z,3.83
2022-10-16T18:32:51.630Z,1.83
2022-10-16T18:35:30.622Z,1.77
2022-10-16T18:38:01.891Z,2.03
2022-10-16T18:40:32.430Z,2.10
2022-10-16T18:43:05.219Z,2.97
2022-10-16T18:45:34.507Z,1.80
2022-10-16T18:48:06.923Z,2.33
2022-10-16T18:50:37.321Z,1.90
2022-10-16T18:53:11.473Z,1.97
2022-10-16T18:56:20.419Z,2.00
2022-10-16T18:59:54.295Z,3.87
2022-10-16T19:02:37.501Z,1.77
2022-10-16T19:05:29.218Z,2.00
2022-10-16T19:10:58.970Z,1.70
2022-10-16T19:13:49.256Z,2.17
2022-10-16T19:16:23.319Z,2.87
2022-10-16T19:18:56.708Z,1.83
2022-10-16T19:22:07.826Z,2.03
2022-10-16T19:25:05.463Z,1.90
2022-10-16T19:27:46.935Z,1.57
2022-10-16T19:30:32.400Z,1.57
2022-10-16T19:33:11.585Z,1.00
2022-10-16T19:42:20.488Z,1.83
2022-10-16T19:45:40.254Z,1.23
2022-10-16T19:48:44.593Z,0.80
2022-10-16T19:55:00.486Z,0.90
2022-10-16T19:57:46.356Z,0.80
2022-10-16T20:01:09.743Z,2.30
2022-10-16T20:04:06.800Z,0.87
2022-10-16T20:09:52.381Z,1.00
2022-10-16T20:12:51.653Z,1.33
2022-10-16T20:16:05.162Z,1.07
2022-10-16T20:18:45.081Z,1.20
2022-10-16T20:21:24.002Z,1.10
2022-10-16T20:24:10.706Z,1.60
2022-10-16T20:27:08.376Z,1.00
2022-10-16T20:31:11.826Z,1.70
2022-10-16T20:33:39.552Z,2.13
2022-10-16T20:36:31.625Z,1.03
2022-10-16T20:39:11.206Z,2.13
2022-10-16T20:42:04.240Z,1.30
2022-10-16T20:45:11.963Z,1.17
2022-10-16T20:47:44.066Z,1.40
2022-10-16T20:53:18.951Z,1.50
2022-10-16T20:56:31.174Z,1.20
2022-10-16T20:58:58.433Z,1.40
2022-10-16T21:01:49.690Z,1.87
2022-10-16T21:05:15.807Z,1.70
2022-10-16T21:08:27.211Z,1.17
2022-10-16T21:11:03.244Z,1.67
2022-10-16T21:13:40.693Z,1.10
2022-10-16T21:16:19.337Z,1.70
2022-10-16T21:19:09.327Z,1.10
2022-10-16T21:21:48.612Z,1.40
2022-10-16T21:24:29.633Z,1.70
2022-10-16T21:27:02.912Z,1.60
2022-10-16T21:29:41.779Z,1.60
2022-10-16T21:32:22.130Z,1.93
2022-10-16T21:35:11.700Z,2.90
2022-10-16T21:37:43.854Z,1.77
2022-10-16T21:40:23.976Z,1.73
2022-10-16T21:43:13.083Z,2.27
2022-10-16T21:45:43.709Z,1.60
2022-10-16T21:48:24.890Z,2.50
2022-10-16T21:50:59.547Z,1.60
2022-10-16T21:53:28.251Z,1.80
2022-10-16T21:56:17.091Z,2.27
2022-10-16T21:58:49.459Z,2.03
2022-10-16T22:01:22.284Z,2.00
2022-10-16T22:03:55.198Z,1.60
2022-10-16T22:06:25.823Z,1.53
2022-10-16T22:08:56.607Z,1.70
2022-10-16T22:11:37.401Z,1.60
2022-10-16T22:14:07.442Z,2.47
2022-10-16T22:16:49.907Z,1.90
2022-10-16T22:19:32.547Z,2.23
2022-10-16T22:22:03.343Z,1.80
2022-10-16T22:43:18.089Z,2.63
2022-10-16T22:46:01.101Z,1.90
2022-10-16T22:48:29.827Z,2.60
2022-10-16T22:50:58.716Z,2.40
2022-10-16T22:53:28.817Z,1.83
2022-10-16T22:56:01.997Z,2.87
2022-10-16T23:14:08.934Z,2.40
2022-10-16T23:17:14.786Z,1.90
2022-10-16T23:20:22.877Z,2.50
2022-10-16T23:23:30.369Z,2.40
2022-10-16T23:26:44.009Z,2.67
2022-10-16T23:29:51.828Z,3.30
2022-10-16T23:33:02.041Z,2.87
2022-10-16T23:36:11.968Z,2.13
2022-10-16T23:39:25.222Z,2.10
2022-10-16T23:42:31.247Z,2.53
2022-10-16T23:45:42.714Z,1.97
2022-10-16T23:48:57.537Z,1.87
2022-10-16T23:52:03.907Z,3.07
2022-10-16T23:55:11.949Z,2.70
2022-10-16T23:58:26.723Z,2.90
